sensor_id;sensor_type;location;lat;lon;timestamp;P1;durP1;ratioP1;P2;durP2;ratioP2
76373;SDS011;65197;50.164;8.012;2023-04-06T00:00:45;7.00;;;4.40;;
76373;SDS011;65197;50.164;8.012;2023-04-06T00:03:11;6.75;;;4.57;;
76373;SDS011;65197;50.164;8.012;2023-04-06T00:05:36;6.22;;;4.65;;
76373;SDS011;65197;50.164;8.012;2023-04-06T00:08:01;8.90;;;5.03;;
76373;SDS011;65197;50.164;8.012;2023-04-06T00:10:27;8.55;;;5.22;;
76373;SDS011;65197;50.164;8.012;2023-04-06T00:12:52;6.95;;;5.05;;
76373;SDS011;65197;50.164;8.012;2023-04-06T00:15:18;7.32;;;4.63;;
76373;SDS011;65197;50.164;8.012;2023-04-06T00:17:45;6.80;;;4.80;;
76373;SDS011;65197;50.164;8.012;2023-04-06T00:20:10;8.00;;;4.70;;
76373;SDS011;65197;50.164;8.012;2023-04-06T00:22:36;6.15;;;4.10;;
76373;SDS011;65197;50.164;8.012;2023-04-06T00:25:01;6.68;;;4.30;;
76373;SDS011;65197;50.164;8.012;2023-04-06T00:27:26;5.78;;;4.10;;
76373;SDS011;65197;50.164;8.012;2023-04-06T00:29:52;7.38;;;4.22;;
76373;SDS011;65197;50.164;8.012;2023-04-06T00:32:17;5.25;;;4.32;;
76373;SDS011;65197;50.164;8.012;2023-04-06T00:34:43;7.90;;;4.47;;
76373;SDS011;65197;50.164;8.012;2023-04-06T00:37:08;5.88;;;4.40;;
76373;SDS011;65197;50.164;8.012;2023-04-06T00:39:33;8.43;;;4.60;;
76373;SDS011;65197;50.164;8.012;2023-04-06T00:41:59;7.22;;;4.43;;
76373;SDS011;65197;50.164;8.012;2023-04-06T00:44:25;8.13;;;4.47;;
76373;SDS011;65197;50.164;8.012;2023-04-06T00:46:51;6.28;;;3.97;;
76373;SDS011;65197;50.164;8.012;2023-04-06T00:49:18;5.18;;;4.15;;
76373;SDS011;65197;50.164;8.012;2023-04-06T00:51:43;6.90;;;4.22;;
76373;SDS011;65197;50.164;8.012;2023-04-06T00:54:09;7.22;;;4.55;;
76373;SDS011;65197;50.164;8.012;2023-04-06T00:56:34;5.28;;;3.95;;
76373;SDS011;65197;50.164;8.012;2023-04-06T00:59:00;6.30;;;4.10;;
76373;SDS011;65197;50.164;8.012;2023-04-06T01:01:25;6.82;;;4.30;;
76373;SDS011;65197;50.164;8.012;2023-04-06T01:03:51;6.40;;;4.05;;
76373;SDS011;65197;50.164;8.012;2023-04-06T01:06:16;6.95;;;4.40;;
76373;SDS011;65197;50.164;8.012;2023-04-06T01:08:42;5.97;;;4.57;;
76373;SDS011;65197;50.164;8.012;2023-04-06T01:11:07;6.82;;;4.32;;
76373;SDS011;65197;50.164;8.012;2023-04-06T01:13:33;6.40;;;3.95;;
76373;SDS011;65197;50.164;8.012;2023-04-06T01:15:58;7.25;;;4.10;;
76373;SDS011;65197;50.164;8.012;2023-04-06T01:18:27;6.00;;;3.85;;
76373;SDS011;65197;50.164;8.012;2023-04-06T01:20:54;6.97;;;4.28;;
76373;SDS011;65197;50.164;8.012;2023-04-06T01:23:19;7.45;;;4.13;;
76373;SDS011;65197;50.164;8.012;2023-04-06T01:25:44;5.85;;;4.60;;
76373;SDS011;65197;50.164;8.012;2023-04-06T01:28:10;8.25;;;4.82;;
76373;SDS011;65197;50.164;8.012;2023-04-06T01:30:35;6.75;;;4.47;;
76373;SDS011;65197;50.164;8.012;2023-04-06T01:33:01;9.40;;;5.10;;
76373;SDS011;65197;50.164;8.012;2023-04-06T01:35:27;7.63;;;4.63;;
76373;SDS011;65197;50.164;8.012;2023-04-06T01:37:53;7.60;;;4.88;;
76373;SDS011;65197;50.164;8.012;2023-04-06T01:40:18;7.90;;;5.22;;
76373;SDS011;65197;50.164;8.012;2023-04-06T01:42:43;6.40;;;4.38;;
76373;SDS011;65197;50.164;8.012;2023-04-06T01:45:09;6.68;;;4.30;;
76373;SDS011;65197;50.164;8.012;2023-04-06T01:47:35;6.43;;;4.47;;
76373;SDS011;65197;50.164;8.012;2023-04-06T01:50:00;5.78;;;4.57;;
76373;SDS011;65197;50.164;8.012;2023-04-06T01:52:27;8.18;;;4.57;;
76373;SDS011;65197;50.164;8.012;2023-04-06T01:54:53;5.85;;;4.50;;
76373;SDS011;65197;50.164;8.012;2023-04-06T01:57:18;6.50;;;4.10;;
76373;SDS011;65197;50.164;8.012;2023-04-06T01:59:43;7.93;;;4.40;;
76373;SDS011;65197;50.164;8.012;2023-04-06T02:02:09;6.85;;;4.43;;
76373;SDS011;65197;50.164;8.012;2023-04-06T02:04:34;6.07;;;4.25;;
76373;SDS011;65197;50.164;8.012;2023-04-06T02:07:00;7.07;;;4.60;;
76373;SDS011;65197;50.164;8.012;2023-04-06T02:09:25;7.15;;;5.35;;
76373;SDS011;65197;50.164;8.012;2023-04-06T02:11:51;6.75;;;4.70;;
76373;SDS011;65197;50.164;8.012;2023-04-06T02:14:16;7.57;;;4.25;;
76373;SDS011;65197;50.164;8.012;2023-04-06T02:16:41;6.47;;;4.55;;
76373;SDS011;65197;50.164;8.012;2023-04-06T02:19:07;6.68;;;4.53;;
76373;SDS011;65197;50.164;8.012;2023-04-06T02:21:32;7.18;;;4.75;;
76373;SDS011;65197;50.164;8.012;2023-04-06T02:23:57;8.68;;;4.95;;
76373;SDS011;65197;50.164;8.012;2023-04-06T02:26:23;8.30;;;4.60;;
76373;SDS011;65197;50.164;8.012;2023-04-06T02:28:48;6.43;;;4.47;;
76373;SDS011;65197;50.164;8.012;2023-04-06T02:31:14;6.80;;;4.13;;
76373;SDS011;65197;50.164;8.012;2023-04-06T02:33:40;8.75;;;4.65;;
76373;SDS011;65197;50.164;8.012;2023-04-06T02:36:06;7.18;;;4.10;;
76373;SDS011;65197;50.164;8.012;2023-04-06T02:38:31;7.95;;;4.47;;
76373;SDS011;65197;50.164;8.012;2023-04-06T02:40:56;6.32;;;4.20;;
76373;SDS011;65197;50.164;8.012;2023-04-06T02:43:22;7.22;;;4.53;;
76373;SDS011;65197;50.164;8.012;2023-04-06T02:45:47;7.07;;;4.20;;
76373;SDS011;65197;50.164;8.012;2023-04-06T02:48:13;7.07;;;3.53;;
76373;SDS011;65197;50.164;8.012;2023-04-06T02:50:38;5.97;;;4.13;;
76373;SDS011;65197;50.164;8.012;2023-04-06T02:53:04;7.60;;;4.70;;
76373;SDS011;65197;50.164;8.012;2023-04-06T02:55:29;7.65;;;4.88;;
76373;SDS011;65197;50.164;8.012;2023-04-06T02:57:55;7.22;;;4.57;;
76373;SDS011;65197;50.164;8.012;2023-04-06T03:00:20;7.85;;;4.40;;
76373;SDS011;65197;50.164;8.012;2023-04-06T03:02:46;6.13;;;4.30;;
76373;SDS011;65197;50.164;8.012;2023-04-06T03:05:11;7.25;;;4.88;;
76373;SDS011;65197;50.164;8.012;2023-04-06T03:07:40;7.53;;;4.55;;
76373;SDS011;65197;50.164;8.012;2023-04-06T03:10:05;9.02;;;4.68;;
76373;SDS011;65197;50.164;8.012;2023-04-06T03:12:31;5.78;;;4.18;;
76373;SDS011;65197;50.164;8.012;2023-04-06T03:14:56;5.22;;;3.90;;
76373;SDS011;65197;50.164;8.012;2023-04-06T03:17:21;9.57;;;4.75;;
76373;SDS011;65197;50.164;8.012;2023-04-06T03:19:47;5.63;;;3.97;;
76373;SDS011;65197;50.164;8.012;2023-04-06T03:22:12;8.68;;;4.78;;
76373;SDS011;65197;50.164;8.012;2023-04-06T03:24:38;5.82;;;4.18;;
76373;SDS011;65197;50.164;8.012;2023-04-06T03:27:03;7.70;;;4.35;;
76373;SDS011;65197;50.164;8.012;2023-04-06T03:29:28;6.80;;;4.78;;
76373;SDS011;65197;50.164;8.012;2023-04-06T03:31:54;9.35;;;4.68;;
76373;SDS011;65197;50.164;8.012;2023-04-06T03:34:20;5.82;;;4.20;;
76373;SDS011;65197;50.164;8.012;2023-04-06T03:36:45;5.68;;;3.97;;
76373;SDS011;65197;50.164;8.012;2023-04-06T03:39:10;6.80;;;4.38;;
76373;SDS011;65197;50.164;8.012;2023-04-06T03:41:37;7.60;;;5.05;;
76373;SDS011;65197;50.164;8.012;2023-04-06T03:44:02;7.28;;;4.25;;
76373;SDS011;65197;50.164;8.012;2023-04-06T03:46:27;7.20;;;4.28;;
76373;SDS011;65197;50.164;8.012;2023-04-06T03:48:53;6.40;;;4.45;;
76373;SDS011;65197;50.164;8.012;2023-04-06T03:51:18;7.68;;;4.88;;
76373;SDS011;65197;50.164;8.012;2023-04-06T03:53:45;6.30;;;3.90;;
76373;SDS011;65197;50.164;8.012;2023-04-06T03:56:10;6.75;;;5.18;;
76373;SDS011;65197;50.164;8.012;2023-04-06T03:58:36;8.68;;;4.68;;
76373;SDS011;65197;50.164;8.012;2023-04-06T04:01:01;8.07;;;4.50;;
76373;SDS011;65197;50.164;8.012;2023-04-06T04:03:26;5.88;;;4.22;;
76373;SDS011;65197;50.164;8.012;2023-04-06T04:05:52;6.13;;;4.45;;
76373;SDS011;65197;50.164;8.012;2023-04-06T04:08:18;6.90;;;4.60;;
76373;SDS011;65197;50.164;8.012;2023-04-06T04:10:44;8.60;;;5.00;;
76373;SDS011;65197;50.164;8.012;2023-04-06T04:13:09;9.15;;;4.95;;
76373;SDS011;65197;50.164;8.012;2023-04-06T04:15:34;6.20;;;4.57;;
76373;SDS011;65197;50.164;8.012;2023-04-06T04:18:00;9.27;;;5.00;;
76373;SDS011;65197;50.164;8.012;2023-04-06T04:20:25;9.38;;;5.13;;
76373;SDS011;65197;50.164;8.012;2023-04-06T04:22:51;7.20;;;4.68;;
76373;SDS011;65197;50.164;8.012;2023-04-06T04:25:16;8.98;;;5.40;;
76373;SDS011;65197;50.164;8.012;2023-04-06T04:27:43;8.73;;;4.72;;
76373;SDS011;65197;50.164;8.012;2023-04-06T04:30:08;9.68;;;5.00;;
76373;SDS011;65197;50.164;8.012;2023-04-06T04:32:34;7.60;;;4.78;;
76373;SDS011;65197;50.164;8.012;2023-04-06T04:34:59;8.57;;;5.38;;
76373;SDS011;65197;50.164;8.012;2023-04-06T04:37:25;7.35;;;4.68;;
76373;SDS011;65197;50.164;8.012;2023-04-06T04:39:50;9.50;;;5.10;;
76373;SDS011;65197;50.164;8.012;2023-04-06T04:42:15;7.85;;;4.72;;
76373;SDS011;65197;50.164;8.012;2023-04-06T04:44:41;7.15;;;5.53;;
76373;SDS011;65197;50.164;8.012;2023-04-06T04:47:06;9.85;;;5.53;;
76373;SDS011;65197;50.164;8.012;2023-04-06T04:49:33;7.88;;;4.90;;
76373;SDS011;65197;50.164;8.012;2023-04-06T04:51:58;8.38;;;5.28;;
76373;SDS011;65197;50.164;8.012;2023-04-06T04:54:23;10.45;;;5.25;;
76373;SDS011;65197;50.164;8.012;2023-04-06T04:56:49;8.88;;;5.32;;
76373;SDS011;65197;50.164;8.012;2023-04-06T04:59:15;8.63;;;5.13;;
76373;SDS011;65197;50.164;8.012;2023-04-06T05:01:41;9.18;;;5.10;;
76373;SDS011;65197;50.164;8.012;2023-04-06T05:04:06;9.38;;;4.80;;
76373;SDS011;65197;50.164;8.012;2023-04-06T05:06:32;7.90;;;5.18;;
76373;SDS011;65197;50.164;8.012;2023-04-06T05:08:57;10.48;;;5.38;;
76373;SDS011;65197;50.164;8.012;2023-04-06T05:11:22;10.02;;;5.65;;
76373;SDS011;65197;50.164;8.012;2023-04-06T05:13:48;9.15;;;5.30;;
76373;SDS011;65197;50.164;8.012;2023-04-06T05:16:13;10.65;;;5.35;;
76373;SDS011;65197;50.164;8.012;2023-04-06T05:18:38;7.13;;;4.90;;
76373;SDS011;65197;50.164;8.012;2023-04-06T05:21:04;7.70;;;4.40;;
76373;SDS011;65197;50.164;8.012;2023-04-06T05:23:30;7.63;;;5.40;;
76373;SDS011;65197;50.164;8.012;2023-04-06T05:25:55;9.80;;;5.22;;
76373;SDS011;65197;50.164;8.012;2023-04-06T05:28:20;8.38;;;5.15;;
76373;SDS011;65197;50.164;8.012;2023-04-06T05:30:46;8.23;;;5.07;;
76373;SDS011;65197;50.164;8.012;2023-04-06T05:33:12;7.80;;;4.88;;
76373;SDS011;65197;50.164;8.012;2023-04-06T05:35:37;7.43;;;4.80;;
76373;SDS011;65197;50.164;8.012;2023-04-06T05:38:02;8.50;;;4.93;;
76373;SDS011;65197;50.164;8.012;2023-04-06T05:40:28;8.57;;;5.18;;
76373;SDS011;65197;50.164;8.012;2023-04-06T05:42:53;7.10;;;5.05;;
76373;SDS011;65197;50.164;8.012;2023-04-06T05:45:19;8.40;;;4.80;;
76373;SDS011;65197;50.164;8.012;2023-04-06T05:47:45;8.73;;;5.55;;
76373;SDS011;65197;50.164;8.012;2023-04-06T05:50:14;8.85;;;5.32;;
76373;SDS011;65197;50.164;8.012;2023-04-06T05:52:40;8.00;;;4.82;;
76373;SDS011;65197;50.164;8.012;2023-04-06T05:55:08;7.75;;;5.05;;
76373;SDS011;65197;50.164;8.012;2023-04-06T05:57:34;12.10;;;5.25;;
76373;SDS011;65197;50.164;8.012;2023-04-06T05:59:59;9.65;;;5.35;;
76373;SDS011;65197;50.164;8.012;2023-04-06T06:02:25;7.20;;;4.85;;
76373;SDS011;65197;50.164;8.012;2023-04-06T06:04:51;6.25;;;4.38;;
76373;SDS011;65197;50.164;8.012;2023-04-06T06:07:16;8.27;;;5.25;;
76373;SDS011;65197;50.164;8.012;2023-04-06T06:09:41;9.30;;;5.25;;
76373;SDS011;65197;50.164;8.012;2023-04-06T06:12:07;8.55;;;5.32;;
76373;SDS011;65197;50.164;8.012;2023-04-06T06:14:32;7.40;;;4.88;;
76373;SDS011;65197;50.164;8.012;2023-04-06T06:16:58;9.20;;;5.55;;
76373;SDS011;65197;50.164;8.012;2023-04-06T06:19:23;7.55;;;4.65;;
76373;SDS011;65197;50.164;8.012;2023-04-06T06:21:48;9.73;;;5.35;;
76373;SDS011;65197;50.164;8.012;2023-04-06T06:24:14;7.22;;;5.00;;
76373;SDS011;65197;50.164;8.012;2023-04-06T06:26:39;9.60;;;5.55;;
76373;SDS011;65197;50.164;8.012;2023-04-06T06:29:05;7.47;;;5.15;;
76373;SDS011;65197;50.164;8.012;2023-04-06T06:31:31;12.43;;;6.45;;
76373;SDS011;65197;50.164;8.012;2023-04-06T06:33:57;10.23;;;5.45;;
76373;SDS011;65197;50.164;8.012;2023-04-06T06:36:22;8.65;;;5.35;;
76373;SDS011;65197;50.164;8.012;2023-04-06T06:38:48;11.52;;;6.15;;
76373;SDS011;65197;50.164;8.012;2023-04-06T06:41:13;7.53;;;5.20;;
76373;SDS011;65197;50.164;8.012;2023-04-06T06:43:38;10.73;;;5.38;;
76373;SDS011;65197;50.164;8.012;2023-04-06T06:46:04;8.52;;;5.47;;
76373;SDS011;65197;50.164;8.012;2023-04-06T06:48:30;8.63;;;5.70;;
76373;SDS011;65197;50.164;8.012;2023-04-06T06:50:56;8.68;;;5.60;;
76373;SDS011;65197;50.164;8.012;2023-04-06T06:53:22;8.73;;;6.07;;
76373;SDS011;65197;50.164;8.012;2023-04-06T06:55:48;9.75;;;5.32;;
76373;SDS011;65197;50.164;8.012;2023-04-06T06:58:17;7.88;;;5.30;;
76373;SDS011;65197;50.164;8.012;2023-04-06T07:00:43;9.65;;;5.95;;
76373;SDS011;65197;50.164;8.012;2023-04-06T07:03:09;8.98;;;5.25;;
76373;SDS011;65197;50.164;8.012;2023-04-06T07:05:34;7.80;;;5.47;;
76373;SDS011;65197;50.164;8.012;2023-04-06T07:08:00;9.32;;;5.47;;
76373;SDS011;65197;50.164;8.012;2023-04-06T07:10:25;9.30;;;5.72;;
76373;SDS011;65197;50.164;8.012;2023-04-06T07:12:51;10.75;;;5.50;;
76373;SDS011;65197;50.164;8.012;2023-04-06T07:15:17;10.52;;;5.78;;
76373;SDS011;65197;50.164;8.012;2023-04-06T07:17:42;8.75;;;5.55;;
76373;SDS011;65197;50.164;8.012;2023-04-06T07:20:10;11.18;;;6.30;;
76373;SDS011;65197;50.164;8.012;2023-04-06T07:22:36;9.98;;;6.20;;
76373;SDS011;65197;50.164;8.012;2023-04-06T07:25:02;10.80;;;5.78;;
76373;SDS011;65197;50.164;8.012;2023-04-06T07:27:27;9.90;;;6.05;;
76373;SDS011;65197;50.164;8.012;2023-04-06T07:29:53;11.50;;;5.97;;
76373;SDS011;65197;50.164;8.012;2023-04-06T07:32:18;10.82;;;5.95;;
76373;SDS011;65197;50.164;8.012;2023-04-06T07:34:44;12.68;;;6.15;;
76373;SDS011;65197;50.164;8.012;2023-04-06T07:37:10;12.35;;;6.35;;
76373;SDS011;65197;50.164;8.012;2023-04-06T07:39:35;9.55;;;5.80;;
76373;SDS011;65197;50.164;8.012;2023-04-06T07:42:01;9.57;;;6.13;;
76373;SDS011;65197;50.164;8.012;2023-04-06T07:44:26;10.02;;;5.97;;
76373;SDS011;65197;50.164;8.012;2023-04-06T07:46:51;9.98;;;6.05;;
76373;SDS011;65197;50.164;8.012;2023-04-06T07:49:17;9.65;;;5.75;;
76373;SDS011;65197;50.164;8.012;2023-04-06T07:51:42;8.98;;;5.55;;
76373;SDS011;65197;50.164;8.012;2023-04-06T07:54:08;9.23;;;6.38;;
76373;SDS011;65197;50.164;8.012;2023-04-06T07:56:33;10.35;;;6.25;;
76373;SDS011;65197;50.164;8.012;2023-04-06T07:58:58;9.68;;;6.53;;
76373;SDS011;65197;50.164;8.012;2023-04-06T08:01:24;12.48;;;5.97;;
76373;SDS011;65197;50.164;8.012;2023-04-06T08:03:50;12.48;;;6.43;;
76373;SDS011;65197;50.164;8.012;2023-04-06T08:06:15;10.68;;;7.13;;
76373;SDS011;65197;50.164;8.012;2023-04-06T08:08:41;12.57;;;6.18;;
76373;SDS011;65197;50.164;8.012;2023-04-06T08:11:07;9.65;;;6.28;;
76373;SDS011;65197;50.164;8.012;2023-04-06T08:13:33;11.88;;;6.57;;
76373;SDS011;65197;50.164;8.012;2023-04-06T08:15:59;10.13;;;6.32;;
76373;SDS011;65197;50.164;8.012;2023-04-06T08:18:25;9.27;;;5.97;;
76373;SDS011;65197;50.164;8.012;2023-04-06T08:20:50;10.45;;;6.20;;
76373;SDS011;65197;50.164;8.012;2023-04-06T08:23:16;10.65;;;6.07;;
76373;SDS011;65197;50.164;8.012;2023-04-06T08:25:41;10.57;;;6.22;;
76373;SDS011;65197;50.164;8.012;2023-04-06T08:28:07;10.23;;;5.97;;
76373;SDS011;65197;50.164;8.012;2023-04-06T08:30:34;10.45;;;6.22;;
76373;SDS011;65197;50.164;8.012;2023-04-06T08:32:59;10.38;;;6.63;;
76373;SDS011;65197;50.164;8.012;2023-04-06T08:35:25;10.85;;;6.47;;
76373;SDS011;65197;50.164;8.012;2023-04-06T08:37:52;11.30;;;5.80;;
76373;SDS011;65197;50.164;8.012;2023-04-06T08:40:17;10.07;;;6.38;;
76373;SDS011;65197;50.164;8.012;2023-04-06T08:42:49;12.55;;;7.35;;
76373;SDS011;65197;50.164;8.012;2023-04-06T08:45:17;15.07;;;6.95;;
76373;SDS011;65197;50.164;8.012;2023-04-06T08:50:11;11.88;;;6.47;;
76373;SDS011;65197;50.164;8.012;2023-04-06T08:52:37;11.40;;;6.80;;
76373;SDS011;65197;50.164;8.012;2023-04-06T08:55:04;10.57;;;6.35;;
76373;SDS011;65197;50.164;8.012;2023-04-06T08:57:29;13.98;;;6.72;;
76373;SDS011;65197;50.164;8.012;2023-04-06T08:59:56;12.95;;;6.93;;
76373;SDS011;65197;50.164;8.012;2023-04-06T09:02:21;11.75;;;5.95;;
76373;SDS011;65197;50.164;8.012;2023-04-06T09:04:52;10.80;;;6.20;;
76373;SDS011;65197;50.164;8.012;2023-04-06T09:07:18;12.80;;;6.70;;
76373;SDS011;65197;50.164;8.012;2023-04-06T09:09:44;10.65;;;6.60;;
76373;SDS011;65197;50.164;8.012;2023-04-06T09:15:17;12.82;;;6.35;;
76373;SDS011;65197;50.164;8.012;2023-04-06T09:17:46;10.80;;;7.05;;
76373;SDS011;65197;50.164;8.012;2023-04-06T09:20:12;10.38;;;6.28;;
76373;SDS011;65197;50.164;8.012;2023-04-06T09:22:38;12.80;;;6.82;;
76373;SDS011;65197;50.164;8.012;2023-04-06T09:25:05;10.07;;;6.88;;
76373;SDS011;65197;50.164;8.012;2023-04-06T09:27:35;10.45;;;6.10;;
76373;SDS011;65197;50.164;8.012;2023-04-06T09:30:11;9.30;;;5.88;;
76373;SDS011;65197;50.164;8.012;2023-04-06T09:32:48;9.13;;;6.43;;
76373;SDS011;65197;50.164;8.012;2023-04-06T09:35:16;10.93;;;6.65;;
76373;SDS011;65197;50.164;8.012;2023-04-06T09:37:45;10.90;;;6.55;;
76373;SDS011;65197;50.164;8.012;2023-04-06T09:40:12;11.10;;;6.40;;
76373;SDS011;65197;50.164;8.012;2023-04-06T09:42:40;10.27;;;6.00;;
76373;SDS011;65197;50.164;8.012;2023-04-06T09:45:07;10.20;;;6.07;;
76373;SDS011;65197;50.164;8.012;2023-04-06T09:47:32;11.27;;;6.35;;
76373;SDS011;65197;50.164;8.012;2023-04-06T09:50:00;9.85;;;6.20;;
76373;SDS011;65197;50.164;8.012;2023-04-06T09:52:32;10.55;;;6.43;;
76373;SDS011;65197;50.164;8.012;2023-04-06T09:55:02;8.93;;;6.03;;
76373;SDS011;65197;50.164;8.012;2023-04-06T09:57:31;11.27;;;6.57;;
76373;SDS011;65197;50.164;8.012;2023-04-06T10:05:16;14.23;;;6.43;;
76373;SDS011;65197;50.164;8.012;2023-04-06T10:07:48;10.90;;;7.07;;
76373;SDS011;65197;50.164;8.012;2023-04-06T10:10:16;11.93;;;6.05;;
76373;SDS011;65197;50.164;8.012;2023-04-06T10:12:41;11.35;;;5.97;;
76373;SDS011;65197;50.164;8.012;2023-04-06T10:15:09;10.73;;;5.50;;
76373;SDS011;65197;50.164;8.012;2023-04-06T10:17:35;12.07;;;6.63;;
76373;SDS011;65197;50.164;8.012;2023-04-06T10:20:05;11.10;;;6.05;;
76373;SDS011;65197;50.164;8.012;2023-04-06T10:22:36;11.50;;;5.40;;
76373;SDS011;65197;50.164;8.012;2023-04-06T10:25:09;10.43;;;5.68;;
76373;SDS011;65197;50.164;8.012;2023-04-06T10:27:35;10.75;;;6.53;;
76373;SDS011;65197;50.164;8.012;2023-04-06T10:30:01;9.43;;;5.93;;
76373;SDS011;65197;50.164;8.012;2023-04-06T10:32:32;10.75;;;5.95;;
76373;SDS011;65197;50.164;8.012;2023-04-06T10:35:07;11.52;;;6.38;;
76373;SDS011;65197;50.164;8.012;2023-04-06T10:37:51;10.32;;;6.40;;
76373;SDS011;65197;50.164;8.012;2023-04-06T10:40:27;12.23;;;6.30;;
76373;SDS011;65197;50.164;8.012;2023-04-06T10:42:53;11.02;;;6.85;;
76373;SDS011;65197;50.164;8.012;2023-04-06T10:45:24;9.07;;;5.22;;
76373;SDS011;65197;50.164;8.012;2023-04-06T10:47:54;10.73;;;5.78;;
76373;SDS011;65197;50.164;8.012;2023-04-06T10:50:20;10.40;;;6.47;;
76373;SDS011;65197;50.164;8.012;2023-04-06T10:52:46;9.88;;;6.10;;
76373;SDS011;65197;50.164;8.012;2023-04-06T10:55:16;13.38;;;7.28;;
76373;SDS011;65197;50.164;8.012;2023-04-06T10:57:46;10.20;;;6.32;;
76373;SDS011;65197;50.164;8.012;2023-04-06T11:00:11;10.13;;;6.40;;
76373;SDS011;65197;50.164;8.012;2023-04-06T11:02:37;10.13;;;6.18;;
76373;SDS011;65197;50.164;8.012;2023-04-06T11:05:03;10.10;;;6.45;;
76373;SDS011;65197;50.164;8.012;2023-04-06T11:07:28;10.40;;;6.30;;
76373;SDS011;65197;50.164;8.012;2023-04-06T11:09:55;11.50;;;6.93;;
76373;SDS011;65197;50.164;8.012;2023-04-06T11:12:26;9.95;;;6.10;;
76373;SDS011;65197;50.164;8.012;2023-04-06T11:14:56;11.35;;;7.35;;
76373;SDS011;65197;50.164;8.012;2023-04-06T11:17:32;10.15;;;6.43;;
76373;SDS011;65197;50.164;8.012;2023-04-06T11:19:59;11.07;;;6.80;;
76373;SDS011;65197;50.164;8.012;2023-04-06T11:22:25;10.68;;;6.57;;
76373;SDS011;65197;50.164;8.012;2023-04-06T11:24:51;8.55;;;5.82;;
76373;SDS011;65197;50.164;8.012;2023-04-06T11:27:17;8.63;;;6.05;;
76373;SDS011;65197;50.164;8.012;2023-04-06T11:29:44;11.95;;;6.43;;
76373;SDS011;65197;50.164;8.012;2023-04-06T11:32:19;11.10;;;7.35;;
76373;SDS011;65197;50.164;8.012;2023-04-06T11:34:46;10.50;;;6.47;;
76373;SDS011;65197;50.164;8.012;2023-04-06T11:37:12;10.65;;;6.68;;
76373;SDS011;65197;50.164;8.012;2023-04-06T11:39:38;10.90;;;6.45;;
76373;SDS011;65197;50.164;8.012;2023-04-06T11:42:20;10.48;;;6.22;;
76373;SDS011;65197;50.164;8.012;2023-04-06T11:44:56;9.07;;;6.38;;
76373;SDS011;65197;50.164;8.012;2023-04-06T11:47:29;9.93;;;6.68;;
76373;SDS011;65197;50.164;8.012;2023-04-06T11:49:56;11.20;;;7.13;;
76373;SDS011;65197;50.164;8.012;2023-04-06T11:52:30;10.80;;;6.85;;
76373;SDS011;65197;50.164;8.012;2023-04-06T11:54:56;8.35;;;6.22;;
76373;SDS011;65197;50.164;8.012;2023-04-06T11:57:22;9.93;;;7.05;;
76373;SDS011;65197;50.164;8.012;2023-04-06T11:59:50;11.38;;;6.55;;
76373;SDS011;65197;50.164;8.012;2023-04-06T12:02:16;11.95;;;6.90;;
76373;SDS011;65197;50.164;8.012;2023-04-06T12:04:42;14.30;;;6.95;;
76373;SDS011;65197;50.164;8.012;2023-04-06T12:07:08;9.63;;;6.32;;
76373;SDS011;65197;50.164;8.012;2023-04-06T12:09:33;10.25;;;6.43;;
76373;SDS011;65197;50.164;8.012;2023-04-06T12:11:59;11.38;;;7.18;;
76373;SDS011;65197;50.164;8.012;2023-04-06T12:14:26;10.35;;;7.13;;
76373;SDS011;65197;50.164;8.012;2023-04-06T12:16:51;12.43;;;6.72;;
76373;SDS011;65197;50.164;8.012;2023-04-06T12:19:17;14.38;;;6.72;;
76373;SDS011;65197;50.164;8.012;2023-04-06T12:21:42;10.32;;;6.53;;
76373;SDS011;65197;50.164;8.012;2023-04-06T12:24:07;9.60;;;6.40;;
76373;SDS011;65197;50.164;8.012;2023-04-06T12:26:33;10.90;;;7.13;;
76373;SDS011;65197;50.164;8.012;2023-04-06T12:28:59;13.00;;;8.43;;
76373;SDS011;65197;50.164;8.012;2023-04-06T12:31:31;12.15;;;7.07;;
76373;SDS011;65197;50.164;8.012;2023-04-06T12:33:56;10.77;;;7.15;;
76373;SDS011;65197;50.164;8.012;2023-04-06T12:36:22;10.13;;;6.65;;
76373;SDS011;65197;50.164;8.012;2023-04-06T12:38:48;11.45;;;7.28;;
76373;SDS011;65197;50.164;8.012;2023-04-06T12:41:13;9.45;;;7.28;;
76373;SDS011;65197;50.164;8.012;2023-04-06T12:43:40;10.65;;;7.00;;
76373;SDS011;65197;50.164;8.012;2023-04-06T12:46:06;10.20;;;7.00;;
76373;SDS011;65197;50.164;8.012;2023-04-06T12:48:31;9.88;;;6.65;;
76373;SDS011;65197;50.164;8.012;2023-04-06T12:50:57;12.80;;;7.28;;
76373;SDS011;65197;50.164;8.012;2023-04-06T12:53:24;10.32;;;6.72;;
76373;SDS011;65197;50.164;8.012;2023-04-06T12:55:50;10.65;;;6.22;;
76373;SDS011;65197;50.164;8.012;2023-04-06T12:58:16;9.98;;;7.15;;
76373;SDS011;65197;50.164;8.012;2023-04-06T13:00:42;10.88;;;7.40;;
76373;SDS011;65197;50.164;8.012;2023-04-06T13:03:07;9.93;;;7.05;;
76373;SDS011;65197;50.164;8.012;2023-04-06T13:05:33;9.52;;;6.13;;
76373;SDS011;65197;50.164;8.012;2023-04-06T13:07:58;8.38;;;5.90;;
76373;SDS011;65197;50.164;8.012;2023-04-06T13:10:23;9.98;;;6.00;;
76373;SDS011;65197;50.164;8.012;2023-04-06T13:12:49;12.15;;;6.75;;
76373;SDS011;65197;50.164;8.012;2023-04-06T13:15:14;10.07;;;6.32;;
76373;SDS011;65197;50.164;8.012;2023-04-06T13:17:40;9.73;;;6.28;;
76373;SDS011;65197;50.164;8.012;2023-04-06T13:20:05;11.25;;;6.60;;
76373;SDS011;65197;50.164;8.012;2023-04-06T13:22:31;9.88;;;5.80;;
76373;SDS011;65197;50.164;8.012;2023-04-06T13:24:57;12.15;;;6.45;;
76373;SDS011;65197;50.164;8.012;2023-04-06T13:27:22;12.65;;;7.13;;
76373;SDS011;65197;50.164;8.012;2023-04-06T13:29:47;13.18;;;7.07;;
76373;SDS011;65197;50.164;8.012;2023-04-06T13:32:14;10.55;;;6.88;;
76373;SDS011;65197;50.164;8.012;2023-04-06T13:34:39;9.38;;;6.28;;
76373;SDS011;65197;50.164;8.012;2023-04-06T13:37:09;13.50;;;7.20;;
76373;SDS011;65197;50.164;8.012;2023-04-06T13:39:36;11.65;;;7.20;;
76373;SDS011;65197;50.164;8.012;2023-04-06T13:42:01;12.48;;;7.50;;
76373;SDS011;65197;50.164;8.012;2023-04-06T13:44:27;10.45;;;6.13;;
76373;SDS011;65197;50.164;8.012;2023-04-06T13:46:53;9.75;;;5.65;;
76373;SDS011;65197;50.164;8.012;2023-04-06T13:49:18;10.43;;;5.95;;
76373;SDS011;65197;50.164;8.012;2023-04-06T13:51:44;9.73;;;5.65;;
76373;SDS011;65197;50.164;8.012;2023-04-06T13:54:09;10.27;;;5.43;;
76373;SDS011;65197;50.164;8.012;2023-04-06T13:56:35;9.65;;;5.40;;
76373;SDS011;65197;50.164;8.012;2023-04-06T13:59:00;8.98;;;5.38;;
76373;SDS011;65197;50.164;8.012;2023-04-06T14:01:27;7.88;;;5.45;;
76373;SDS011;65197;50.164;8.012;2023-04-06T14:03:52;8.32;;;5.53;;
76373;SDS011;65197;50.164;8.012;2023-04-06T14:06:18;8.00;;;5.22;;
76373;SDS011;65197;50.164;8.012;2023-04-06T14:08:43;11.73;;;6.15;;
76373;SDS011;65197;50.164;8.012;2023-04-06T14:11:12;11.02;;;5.13;;
76373;SDS011;65197;50.164;8.012;2023-04-06T14:16:04;9.27;;;4.72;;
76373;SDS011;65197;50.164;8.012;2023-04-06T14:18:29;9.05;;;5.68;;
76373;SDS011;65197;50.164;8.012;2023-04-06T14:20:56;11.05;;;5.72;;
76373;SDS011;65197;50.164;8.012;2023-04-06T14:23:22;9.88;;;5.55;;
76373;SDS011;65197;50.164;8.012;2023-04-06T14:26:00;7.75;;;5.60;;
76373;SDS011;65197;50.164;8.012;2023-04-06T14:28:27;9.73;;;5.25;;
76373;SDS011;65197;50.164;8.012;2023-04-06T14:30:53;9.00;;;5.25;;
76373;SDS011;65197;50.164;8.012;2023-04-06T14:33:18;8.82;;;5.15;;
76373;SDS011;65197;50.164;8.012;2023-04-06T14:35:44;8.73;;;5.82;;
76373;SDS011;65197;50.164;8.012;2023-04-06T14:38:09;7.78;;;4.70;;
76373;SDS011;65197;50.164;8.012;2023-04-06T14:40:35;9.35;;;5.60;;
76373;SDS011;65197;50.164;8.012;2023-04-06T14:43:01;8.73;;;4.93;;
76373;SDS011;65197;50.164;8.012;2023-04-06T14:45:27;7.57;;;5.18;;
76373;SDS011;65197;50.164;8.012;2023-04-06T14:47:53;7.10;;;4.47;;
76373;SDS011;65197;50.164;8.012;2023-04-06T14:50:18;7.18;;;5.03;;